sensor_id;sensor_type;location;lat;lon;timestamp;P1;durP1;ratioP1;P2;durP2;ratioP2
74674;SDS011;63200;48.810;12.352;2023-09-19T00:02:12;5.85;;;1.90;;
74674;SDS011;63200;48.810;12.352;2023-09-19T00:04:37;4.68;;;1.83;;
74674;SDS011;63200;48.810;12.352;2023-09-19T00:07:04;4.20;;;1.98;;
74674;SDS011;63200;48.810;12.352;2023-09-19T00:09:30;3.03;;;2.05;;
74674;SDS011;63200;48.810;12.352;2023-09-19T00:12:01;2.00;;;1.90;;
74674;SDS011;63200;48.810;12.352;2023-09-19T00:14:27;1.90;;;1.80;;
74674;SDS011;63200;48.810;12.352;2023-09-19T00:16:53;10.82;;;2.00;;
74674;SDS011;63200;48.810;12.352;2023-09-19T00:19:19;3.72;;;1.98;;
74674;SDS011;63200;48.810;12.352;2023-09-19T00:21:45;1.70;;;1.60;;
74674;SDS011;63200;48.810;12.352;2023-09-19T00:24:12;2.47;;;1.73;;
74674;SDS011;63200;48.810;12.352;2023-09-19T00:26:37;3.67;;;1.90;;
74674;SDS011;63200;48.810;12.352;2023-09-19T00:29:03;4.97;;;1.75;;
74674;SDS011;63200;48.810;12.352;2023-09-19T00:31:28;10.45;;;1.70;;
74674;SDS011;63200;48.810;12.352;2023-09-19T00:33:55;3.13;;;1.60;;
74674;SDS011;63200;48.810;12.352;2023-09-19T00:36:22;5.80;;;1.75;;
74674;SDS011;63200;48.810;12.352;2023-09-19T00:38:48;2.92;;;1.80;;
74674;SDS011;63200;48.810;12.352;2023-09-19T00:41:13;1.77;;;1.67;;
74674;SDS011;63200;48.810;12.352;2023-09-19T00:43:38;2.45;;;1.90;;
74674;SDS011;63200;48.810;12.352;2023-09-19T00:46:05;6.53;;;1.67;;
74674;SDS011;63200;48.810;12.352;2023-09-19T00:48:31;2.17;;;2.03;;
74674;SDS011;63200;48.810;12.352;2023-09-19T00:51:05;2.13;;;1.67;;
74674;SDS011;63200;48.810;12.352;2023-09-19T00:53:30;4.55;;;1.70;;
74674;SDS011;63200;48.810;12.352;2023-09-19T00:55:56;2.65;;;1.92;;
74674;SDS011;63200;48.810;12.352;2023-09-19T00:58:21;7.32;;;2.00;;
74674;SDS011;63200;48.810;12.352;2023-09-19T01:00:50;5.00;;;1.90;;
74674;SDS011;63200;48.810;12.352;2023-09-19T01:03:16;4.78;;;1.70;;
74674;SDS011;63200;48.810;12.352;2023-09-19T01:05:43;2.90;;;1.80;;
74674;SDS011;63200;48.810;12.352;2023-09-19T01:08:08;7.15;;;1.70;;
74674;SDS011;63200;48.810;12.352;2023-09-19T01:10:36;2.88;;;1.77;;
74674;SDS011;63200;48.810;12.352;2023-09-19T01:13:21;8.77;;;2.33;;
74674;SDS011;63200;48.810;12.352;2023-09-19T01:15:55;2.78;;;1.90;;
74674;SDS011;63200;48.810;12.352;2023-09-19T01:18:40;6.50;;;1.88;;
74674;SDS011;63200;48.810;12.352;2023-09-19T01:21:22;5.47;;;2.08;;
74674;SDS011;63200;48.810;12.352;2023-09-19T01:24:00;2.92;;;1.60;;
74674;SDS011;63200;48.810;12.352;2023-09-19T01:29:44;5.40;;;2.20;;
74674;SDS011;63200;48.810;12.352;2023-09-19T01:32:13;3.70;;;2.22;;
74674;SDS011;63200;48.810;12.352;2023-09-19T01:34:44;2.47;;;2.03;;
74674;SDS011;63200;48.810;12.352;2023-09-19T01:37:14;4.95;;;1.90;;
74674;SDS011;63200;48.810;12.352;2023-09-19T01:39:44;2.15;;;2.00;;
74674;SDS011;63200;48.810;12.352;2023-09-19T01:47:43;2.30;;;2.10;;
74674;SDS011;63200;48.810;12.352;2023-09-19T01:52:59;8.90;;;3.67;;
74674;SDS011;63200;48.810;12.352;2023-09-19T01:55:29;7.78;;;2.50;;
74674;SDS011;63200;48.810;12.352;2023-09-19T01:58:06;3.22;;;2.25;;
74674;SDS011;63200;48.810;12.352;2023-09-19T02:00:34;4.55;;;1.98;;
74674;SDS011;63200;48.810;12.352;2023-09-19T02:03:02;7.03;;;2.08;;
74674;SDS011;63200;48.810;12.352;2023-09-19T02:05:28;4.53;;;2.10;;
74674;SDS011;63200;48.810;12.352;2023-09-19T02:07:54;4.85;;;2.58;;
74674;SDS011;63200;48.810;12.352;2023-09-19T02:10:20;10.15;;;3.38;;
74674;SDS011;63200;48.810;12.352;2023-09-19T02:12:46;13.63;;;3.35;;
74674;SDS011;63200;48.810;12.352;2023-09-19T02:15:11;12.63;;;3.70;;
74674;SDS011;63200;48.810;12.352;2023-09-19T02:17:36;6.93;;;3.08;;
74674;SDS011;63200;48.810;12.352;2023-09-19T02:20:02;12.80;;;3.40;;
74674;SDS011;63200;48.810;12.352;2023-09-19T02:22:36;15.98;;;3.50;;
74674;SDS011;63200;48.810;12.352;2023-09-19T02:25:01;5.97;;;3.10;;
74674;SDS011;63200;48.810;12.352;2023-09-19T02:27:29;6.35;;;3.13;;
74674;SDS011;63200;48.810;12.352;2023-09-19T02:29:55;11.52;;;3.00;;
74674;SDS011;63200;48.810;12.352;2023-09-19T02:32:21;3.03;;;2.70;;
74674;SDS011;63200;48.810;12.352;2023-09-19T02:34:46;8.65;;;3.67;;
74674;SDS011;63200;48.810;12.352;2023-09-19T02:37:13;20.17;;;3.65;;
74674;SDS011;63200;48.810;12.352;2023-09-19T02:39:41;6.30;;;3.17;;
74674;SDS011;63200;48.810;12.352;2023-09-19T02:42:06;7.45;;;2.45;;
74674;SDS011;63200;48.810;12.352;2023-09-19T02:44:32;12.68;;;2.80;;
74674;SDS011;63200;48.810;12.352;2023-09-19T02:46:57;6.25;;;2.70;;
74674;SDS011;63200;48.810;12.352;2023-09-19T02:49:23;3.47;;;3.08;;
74674;SDS011;63200;48.810;12.352;2023-09-19T02:51:48;5.18;;;2.67;;
74674;SDS011;63200;48.810;12.352;2023-09-19T02:54:14;5.43;;;2.60;;
74674;SDS011;63200;48.810;12.352;2023-09-19T02:56:40;4.78;;;2.67;;
74674;SDS011;63200;48.810;12.352;2023-09-19T02:59:06;3.47;;;2.10;;
74674;SDS011;63200;48.810;12.352;2023-09-19T03:01:32;6.88;;;2.58;;
74674;SDS011;63200;48.810;12.352;2023-09-19T03:03:57;7.20;;;2.50;;
74674;SDS011;63200;48.810;12.352;2023-09-19T03:06:23;2.42;;;2.22;;
74674;SDS011;63200;48.810;12.352;2023-09-19T03:08:49;3.72;;;2.35;;
74674;SDS011;63200;48.810;12.352;2023-09-19T03:11:16;6.22;;;2.25;;
74674;SDS011;63200;48.810;12.352;2023-09-19T03:13:46;8.63;;;2.13;;
74674;SDS011;63200;48.810;12.352;2023-09-19T03:16:15;1.95;;;1.85;;
74674;SDS011;63200;48.810;12.352;2023-09-19T03:18:41;4.93;;;1.95;;
74674;SDS011;63200;48.810;12.352;2023-09-19T03:21:06;2.28;;;2.00;;
74674;SDS011;63200;48.810;12.352;2023-09-19T03:23:32;2.58;;;2.38;;
74674;SDS011;63200;48.810;12.352;2023-09-19T03:25:57;5.22;;;2.28;;
74674;SDS011;63200;48.810;12.352;2023-09-19T03:28:24;2.47;;;2.28;;
74674;SDS011;63200;48.810;12.352;2023-09-19T03:30:59;2.75;;;2.33;;
74674;SDS011;63200;48.810;12.352;2023-09-19T03:33:28;2.80;;;1.83;;
74674;SDS011;63200;48.810;12.352;2023-09-19T03:35:56;3.25;;;2.20;;
74674;SDS011;63200;48.810;12.352;2023-09-19T03:38:23;3.13;;;2.35;;
74674;SDS011;63200;48.810;12.352;2023-09-19T03:40:48;4.60;;;1.83;;
74674;SDS011;63200;48.810;12.352;2023-09-19T03:43:14;2.63;;;2.05;;
74674;SDS011;63200;48.810;12.352;2023-09-19T03:45:39;2.67;;;2.10;;
74674;SDS011;63200;48.810;12.352;2023-09-19T03:48:08;2.88;;;1.98;;
74674;SDS011;63200;48.810;12.352;2023-09-19T03:50:34;6.63;;;2.13;;
74674;SDS011;63200;48.810;12.352;2023-09-19T03:52:59;2.40;;;2.10;;
74674;SDS011;63200;48.810;12.352;2023-09-19T03:55:25;4.07;;;2.08;;
74674;SDS011;63200;48.810;12.352;2023-09-19T03:57:50;4.07;;;2.00;;
74674;SDS011;63200;48.810;12.352;2023-09-19T04:00:15;2.25;;;2.05;;
74674;SDS011;63200;48.810;12.352;2023-09-19T04:02:43;4.70;;;1.85;;
74674;SDS011;63200;48.810;12.352;2023-09-19T04:05:11;2.55;;;2.03;;
74674;SDS011;63200;48.810;12.352;2023-09-19T04:07:36;3.90;;;1.77;;
74674;SDS011;63200;48.810;12.352;2023-09-19T04:10:02;2.15;;;1.50;;
74674;SDS011;63200;48.810;12.352;2023-09-19T04:12:28;3.17;;;1.48;;
74674;SDS011;63200;48.810;12.352;2023-09-19T04:14:53;1.45;;;1.45;;
74674;SDS011;63200;48.810;12.352;2023-09-19T04:17:19;2.15;;;1.30;;
74674;SDS011;63200;48.810;12.352;2023-09-19T04:19:44;1.30;;;1.20;;
74674;SDS011;63200;48.810;12.352;2023-09-19T04:22:10;2.30;;;1.20;;
74674;SDS011;63200;48.810;12.352;2023-09-19T04:24:37;2.50;;;1.10;;
74674;SDS011;63200;48.810;12.352;2023-09-19T04:27:03;2.25;;;1.20;;
74674;SDS011;63200;48.810;12.352;2023-09-19T04:29:29;1.42;;;1.33;;
74674;SDS011;63200;48.810;12.352;2023-09-19T04:31:54;1.35;;;1.20;;
74674;SDS011;63200;48.810;12.352;2023-09-19T04:34:21;9.80;;;2.13;;
74674;SDS011;63200;48.810;12.352;2023-09-19T04:36:47;1.42;;;1.20;;
74674;SDS011;63200;48.810;12.352;2023-09-19T04:39:12;1.65;;;1.00;;
74674;SDS011;63200;48.810;12.352;2023-09-19T04:41:38;2.05;;;1.27;;
74674;SDS011;63200;48.810;12.352;2023-09-19T04:44:05;1.17;;;1.17;;
74674;SDS011;63200;48.810;12.352;2023-09-19T04:46:31;1.50;;;1.27;;
74674;SDS011;63200;48.810;12.352;2023-09-19T04:48:56;1.10;;;1.00;;
74674;SDS011;63200;48.810;12.352;2023-09-19T04:51:22;1.13;;;1.00;;
74674;SDS011;63200;48.810;12.352;2023-09-19T04:53:48;1.27;;;1.27;;
74674;SDS011;63200;48.810;12.352;2023-09-19T04:56:14;2.75;;;1.20;;
74674;SDS011;63200;48.810;12.352;2023-09-19T04:58:40;2.97;;;1.10;;
74674;SDS011;63200;48.810;12.352;2023-09-19T05:01:05;1.45;;;1.05;;
74674;SDS011;63200;48.810;12.352;2023-09-19T05:03:30;1.30;;;1.20;;
74674;SDS011;63200;48.810;12.352;2023-09-19T05:05:56;3.45;;;1.05;;
74674;SDS011;63200;48.810;12.352;2023-09-19T05:08:21;1.85;;;1.00;;
74674;SDS011;63200;48.810;12.352;2023-09-19T05:10:47;3.03;;;1.30;;
74674;SDS011;63200;48.810;12.352;2023-09-19T05:13:13;1.15;;;1.10;;
74674;SDS011;63200;48.810;12.352;2023-09-19T05:15:39;2.05;;;0.90;;
74674;SDS011;63200;48.810;12.352;2023-09-19T05:18:04;1.15;;;1.15;;
74674;SDS011;63200;48.810;12.352;2023-09-19T05:20:31;1.30;;;1.20;;
74674;SDS011;63200;48.810;12.352;2023-09-19T05:23:03;1.40;;;1.33;;
74674;SDS011;63200;48.810;12.352;2023-09-19T05:25:33;1.27;;;1.10;;
74674;SDS011;63200;48.810;12.352;2023-09-19T05:28:03;1.83;;;1.10;;
74674;SDS011;63200;48.810;12.352;2023-09-19T05:30:28;1.42;;;1.23;;
74674;SDS011;63200;48.810;12.352;2023-09-19T05:32:54;1.48;;;1.38;;
74674;SDS011;63200;48.810;12.352;2023-09-19T05:35:21;1.48;;;1.23;;
74674;SDS011;63200;48.810;12.352;2023-09-19T05:37:47;2.25;;;1.48;;
74674;SDS011;63200;48.810;12.352;2023-09-19T05:40:16;1.42;;;1.30;;
74674;SDS011;63200;48.810;12.352;2023-09-19T05:42:42;1.40;;;1.30;;
74674;SDS011;63200;48.810;12.352;2023-09-19T05:45:09;1.38;;;1.30;;
74674;SDS011;63200;48.810;12.352;2023-09-19T05:47:37;2.47;;;1.65;;
74674;SDS011;63200;48.810;12.352;2023-09-19T05:50:03;1.63;;;1.38;;
74674;SDS011;63200;48.810;12.352;2023-09-19T05:52:30;2.33;;;1.58;;
74674;SDS011;63200;48.810;12.352;2023-09-19T05:54:55;2.70;;;1.55;;
74674;SDS011;63200;48.810;12.352;2023-09-19T05:57:21;3.15;;;1.58;;
74674;SDS011;63200;48.810;12.352;2023-09-19T05:59:47;3.00;;;1.70;;
74674;SDS011;63200;48.810;12.352;2023-09-19T06:02:14;2.25;;;1.63;;
74674;SDS011;63200;48.810;12.352;2023-09-19T06:04:40;2.45;;;1.90;;
74674;SDS011;63200;48.810;12.352;2023-09-19T06:07:06;2.53;;;1.60;;
74674;SDS011;63200;48.810;12.352;2023-09-19T06:09:31;1.52;;;1.50;;
74674;SDS011;63200;48.810;12.352;2023-09-19T06:11:57;4.35;;;1.92;;
74674;SDS011;63200;48.810;12.352;2023-09-19T06:14:22;1.73;;;1.58;;
74674;SDS011;63200;48.810;12.352;2023-09-19T06:16:49;2.20;;;1.88;;
74674;SDS011;63200;48.810;12.352;2023-09-19T06:19:15;4.28;;;1.92;;
74674;SDS011;63200;48.810;12.352;2023-09-19T06:21:40;2.35;;;2.25;;
74674;SDS011;63200;48.810;12.352;2023-09-19T06:24:06;3.72;;;1.60;;
74674;SDS011;63200;48.810;12.352;2023-09-19T06:26:31;3.63;;;1.77;;
74674;SDS011;63200;48.810;12.352;2023-09-19T06:28:57;1.60;;;1.50;;
74674;SDS011;63200;48.810;12.352;2023-09-19T06:31:24;1.98;;;1.65;;
74674;SDS011;63200;48.810;12.352;2023-09-19T06:33:51;2.10;;;1.65;;
74674;SDS011;63200;48.810;12.352;2023-09-19T06:36:17;2.92;;;1.70;;
74674;SDS011;63200;48.810;12.352;2023-09-19T06:38:42;4.50;;;1.70;;
74674;SDS011;63200;48.810;12.352;2023-09-19T06:41:08;2.33;;;1.67;;
74674;SDS011;63200;48.810;12.352;2023-09-19T06:43:34;2.03;;;1.70;;
74674;SDS011;63200;48.810;12.352;2023-09-19T06:46:00;4.70;;;1.63;;
74674;SDS011;63200;48.810;12.352;2023-09-19T06:48:26;2.00;;;1.80;;
74674;SDS011;63200;48.810;12.352;2023-09-19T06:50:57;1.88;;;1.77;;
74674;SDS011;63200;48.810;12.352;2023-09-19T06:53:23;3.20;;;1.70;;
74674;SDS011;63200;48.810;12.352;2023-09-19T06:55:50;3.60;;;1.50;;
74674;SDS011;63200;48.810;12.352;2023-09-19T06:58:16;1.67;;;1.58;;
74674;SDS011;63200;48.810;12.352;2023-09-19T07:00:41;2.85;;;1.90;;
74674;SDS011;63200;48.810;12.352;2023-09-19T07:03:07;2.35;;;1.70;;
74674;SDS011;63200;48.810;12.352;2023-09-19T07:05:36;3.65;;;2.05;;
74674;SDS011;63200;48.810;12.352;2023-09-19T07:08:04;2.13;;;1.45;;
74674;SDS011;63200;48.810;12.352;2023-09-19T07:10:34;1.88;;;1.70;;
74674;SDS011;63200;48.810;12.352;2023-09-19T07:13:03;1.58;;;1.55;;
74674;SDS011;63200;48.810;12.352;2023-09-19T07:15:30;2.33;;;1.60;;
74674;SDS011;63200;48.810;12.352;2023-09-19T07:18:00;1.63;;;1.50;;
74674;SDS011;63200;48.810;12.352;2023-09-19T07:20:26;1.77;;;1.67;;
74674;SDS011;63200;48.810;12.352;2023-09-19T07:22:52;2.25;;;1.50;;
74674;SDS011;63200;48.810;12.352;2023-09-19T07:25:20;3.60;;;1.58;;
74674;SDS011;63200;48.810;12.352;2023-09-19T07:27:45;2.30;;;1.38;;
74674;SDS011;63200;48.810;12.352;2023-09-19T07:30:11;1.60;;;1.30;;
74674;SDS011;63200;48.810;12.352;2023-09-19T07:32:37;1.40;;;1.40;;
74674;SDS011;63200;48.810;12.352;2023-09-19T07:35:03;1.85;;;1.60;;
74674;SDS011;63200;48.810;12.352;2023-09-19T07:37:29;2.10;;;1.90;;
74674;SDS011;63200;48.810;12.352;2023-09-19T07:39:56;1.55;;;1.55;;
74674;SDS011;63200;48.810;12.352;2023-09-19T07:42:21;3.33;;;1.70;;
74674;SDS011;63200;48.810;12.352;2023-09-19T07:44:47;2.00;;;1.58;;
74674;SDS011;63200;48.810;12.352;2023-09-19T07:47:15;1.98;;;1.40;;
74674;SDS011;63200;48.810;12.352;2023-09-19T07:49:41;1.60;;;1.50;;
74674;SDS011;63200;48.810;12.352;2023-09-19T07:52:07;6.75;;;1.65;;
74674;SDS011;63200;48.810;12.352;2023-09-19T07:54:34;1.95;;;1.80;;
74674;SDS011;63200;48.810;12.352;2023-09-19T07:57:00;2.78;;;1.63;;
74674;SDS011;63200;48.810;12.352;2023-09-19T07:59:26;1.77;;;1.67;;
74674;SDS011;63200;48.810;12.352;2023-09-19T08:01:51;2.00;;;1.83;;
74674;SDS011;63200;48.810;12.352;2023-09-19T08:04:17;1.58;;;1.48;;
74674;SDS011;63200;48.810;12.352;2023-09-19T08:06:44;2.22;;;2.10;;
74674;SDS011;63200;48.810;12.352;2023-09-19T08:09:12;2.60;;;2.00;;
74674;SDS011;63200;48.810;12.352;2023-09-19T08:11:41;2.13;;;1.90;;
74674;SDS011;63200;48.810;12.352;2023-09-19T08:14:06;1.98;;;1.80;;
74674;SDS011;63200;48.810;12.352;2023-09-19T08:16:32;3.80;;;2.38;;
74674;SDS011;63200;48.810;12.352;2023-09-19T08:18:58;1.90;;;1.80;;
74674;SDS011;63200;48.810;12.352;2023-09-19T08:21:23;2.35;;;1.90;;
74674;SDS011;63200;48.810;12.352;2023-09-19T08:23:49;1.75;;;1.65;;
74674;SDS011;63200;48.810;12.352;2023-09-19T08:26:15;2.03;;;1.75;;
74674;SDS011;63200;48.810;12.352;2023-09-19T08:28:40;1.65;;;1.63;;
74674;SDS011;63200;48.810;12.352;2023-09-19T08:31:06;2.30;;;2.00;;
74674;SDS011;63200;48.810;12.352;2023-09-19T08:33:34;5.43;;;1.80;;
74674;SDS011;63200;48.810;12.352;2023-09-19T08:36:01;2.20;;;2.10;;
74674;SDS011;63200;48.810;12.352;2023-09-19T08:38:30;2.33;;;2.22;;
74674;SDS011;63200;48.810;12.352;2023-09-19T08:40:58;3.47;;;2.30;;
74674;SDS011;63200;48.810;12.352;2023-09-19T08:43:24;2.17;;;2.00;;
74674;SDS011;63200;48.810;12.352;2023-09-19T08:45:51;2.00;;;1.90;;
74674;SDS011;63200;48.810;12.352;2023-09-19T08:48:28;3.28;;;2.13;;
74674;SDS011;63200;48.810;12.352;2023-09-19T08:51:02;4.72;;;2.50;;
74674;SDS011;63200;48.810;12.352;2023-09-19T08:56:04;2.35;;;1.98;;
74674;SDS011;63200;48.810;12.352;2023-09-19T08:58:44;2.42;;;2.22;;
74674;SDS011;63200;48.810;12.352;2023-09-19T09:01:16;2.72;;;2.25;;
74674;SDS011;63200;48.810;12.352;2023-09-19T09:03:47;4.18;;;2.47;;
74674;SDS011;63200;48.810;12.352;2023-09-19T09:06:14;2.30;;;2.20;;
74674;SDS011;63200;48.810;12.352;2023-09-19T09:08:40;4.50;;;2.10;;
74674;SDS011;63200;48.810;12.352;2023-09-19T09:11:07;2.33;;;2.20;;
74674;SDS011;63200;48.810;12.352;2023-09-19T09:13:33;1.90;;;1.90;;
74674;SDS011;63200;48.810;12.352;2023-09-19T09:16:01;1.67;;;1.67;;
74674;SDS011;63200;48.810;12.352;2023-09-19T09:18:28;3.45;;;1.80;;
74674;SDS011;63200;48.810;12.352;2023-09-19T09:20:55;1.98;;;1.70;;
74674;SDS011;63200;48.810;12.352;2023-09-19T09:23:21;1.48;;;1.40;;
74674;SDS011;63200;48.810;12.352;2023-09-19T09:25:50;1.80;;;1.40;;
74674;SDS011;63200;48.810;12.352;2023-09-19T09:28:20;1.70;;;1.60;;
74674;SDS011;63200;48.810;12.352;2023-09-19T09:30:50;1.67;;;1.58;;
74674;SDS011;63200;48.810;12.352;2023-09-19T09:33:16;1.73;;;1.63;;
74674;SDS011;63200;48.810;12.352;2023-09-19T09:35:52;3.85;;;2.13;;
74674;SDS011;63200;48.810;12.352;2023-09-19T09:38:28;7.60;;;2.03;;
74674;SDS011;63200;48.810;12.352;2023-09-19T09:40:58;1.90;;;1.73;;
74674;SDS011;63200;48.810;12.352;2023-09-19T09:43:28;2.13;;;1.92;;
74674;SDS011;63200;48.810;12.352;2023-09-19T09:51:39;5.50;;;1.95;;
74674;SDS011;63200;48.810;12.352;2023-09-19T09:54:13;2.80;;;2.20;;
74674;SDS011;63200;48.810;12.352;2023-09-19T09:56:59;2.97;;;1.90;;
74674;SDS011;63200;48.810;12.352;2023-09-19T09:59:48;3.15;;;1.92;;
74674;SDS011;63200;48.810;12.352;2023-09-19T10:02:27;2.03;;;1.92;;
74674;SDS011;63200;48.810;12.352;2023-09-19T10:04:55;4.10;;;1.70;;
74674;SDS011;63200;48.810;12.352;2023-09-19T10:07:32;5.25;;;1.73;;
74674;SDS011;63200;48.810;12.352;2023-09-19T10:10:04;2.65;;;1.60;;
74674;SDS011;63200;48.810;12.352;2023-09-19T10:12:50;8.57;;;1.45;;
74674;SDS011;63200;48.810;12.352;2023-09-19T10:15:21;0.77;;;0.77;;
74674;SDS011;63200;48.810;12.352;2023-09-19T10:17:51;2.00;;;1.33;;
74674;SDS011;63200;48.810;12.352;2023-09-19T10:20:21;1.63;;;1.00;;
74674;SDS011;63200;48.810;12.352;2023-09-19T10:23:03;1.55;;;0.70;;
74674;SDS011;63200;48.810;12.352;2023-09-19T10:25:41;0.60;;;0.60;;
74674;SDS011;63200;48.810;12.352;2023-09-19T10:28:07;1.17;;;1.08;;
74674;SDS011;63200;48.810;12.352;2023-09-19T10:30:45;1.10;;;1.10;;
74674;SDS011;63200;48.810;12.352;2023-09-19T10:33:32;0.85;;;0.85;;
74674;SDS011;63200;48.810;12.352;2023-09-19T10:36:01;2.25;;;1.15;;
74674;SDS011;63200;48.810;12.352;2023-09-19T10:38:29;1.25;;;1.15;;
74674;SDS011;63200;48.810;12.352;2023-09-19T10:40:58;1.10;;;1.10;;
74674;SDS011;63200;48.810;12.352;2023-09-19T10:43:26;1.58;;;1.45;;
74674;SDS011;63200;48.810;12.352;2023-09-19T10:45:58;2.45;;;1.17;;
74674;SDS011;63200;48.810;12.352;2023-09-19T10:48:28;2.00;;;1.10;;
74674;SDS011;63200;48.810;12.352;2023-09-19T10:53:24;1.05;;;1.00;;
74674;SDS011;63200;48.810;12.352;2023-09-19T10:55:53;1.10;;;1.10;;
74674;SDS011;63200;48.810;12.352;2023-09-19T10:58:25;1.00;;;1.00;;
74674;SDS011;63200;48.810;12.352;2023-09-19T11:00:59;1.50;;;1.30;;
74674;SDS011;63200;48.810;12.352;2023-09-19T11:03:30;1.10;;;0.80;;
74674;SDS011;63200;48.810;12.352;2023-09-19T11:11:47;2.10;;;0.93;;
74674;SDS011;63200;48.810;12.352;2023-09-19T11:30:49;1.13;;;1.02;;
74674;SDS011;63200;48.810;12.352;2023-09-19T11:33:19;0.70;;;0.70;;
74674;SDS011;63200;48.810;12.352;2023-09-19T11:43:51;1.00;;;1.00;;
74674;SDS011;63200;48.810;12.352;2023-09-19T11:46:19;2.67;;;0.95;;
74674;SDS011;63200;48.810;12.352;2023-09-19T11:48:48;0.90;;;0.90;;
74674;SDS011;63200;48.810;12.352;2023-09-19T11:51:15;0.90;;;0.90;;
74674;SDS011;63200;48.810;12.352;2023-09-19T11:53:47;1.00;;;0.90;;
74674;SDS011;63200;48.810;12.352;2023-09-19T11:56:17;1.02;;;0.98;;
74674;SDS011;63200;48.810;12.352;2023-09-19T11:58:45;1.40;;;1.00;;
74674;SDS011;63200;48.810;12.352;2023-09-19T12:01:12;1.00;;;0.95;;
74674;SDS011;63200;48.810;12.352;2023-09-19T12:03:46;1.77;;;1.20;;
74674;SDS011;63200;48.810;12.352;2023-09-19T12:06:15;1.80;;;1.10;;
74674;SDS011;63200;48.810;12.352;2023-09-19T12:08:42;3.38;;;1.17;;
74674;SDS011;63200;48.810;12.352;2023-09-19T12:11:11;1.65;;;1.08;;
74674;SDS011;63200;48.810;12.352;2023-09-19T12:13:44;1.17;;;1.13;;
74674;SDS011;63200;48.810;12.352;2023-09-19T12:16:20;1.00;;;1.00;;
74674;SDS011;63200;48.810;12.352;2023-09-19T12:18:49;1.85;;;1.20;;
74674;SDS011;63200;48.810;12.352;2023-09-19T12:21:31;1.15;;;1.13;;
74674;SDS011;63200;48.810;12.352;2023-09-19T12:26:40;1.42;;;1.20;;
74674;SDS011;63200;48.810;12.352;2023-09-19T12:29:13;1.13;;;1.13;;
74674;SDS011;63200;48.810;12.352;2023-09-19T12:31:49;1.73;;;1.10;;
74674;SDS011;63200;48.810;12.352;2023-09-19T12:34:32;1.67;;;1.10;;
74674;SDS011;63200;48.810;12.352;2023-09-19T12:37:13;1.10;;;1.10;;
74674;SDS011;63200;48.810;12.352;2023-09-19T12:39:47;1.00;;;1.00;;
74674;SDS011;63200;48.810;12.352;2023-09-19T12:42:23;1.02;;;1.00;;
74674;SDS011;63200;48.810;12.352;2023-09-19T12:44:53;1.55;;;1.15;;
74674;SDS011;63200;48.810;12.352;2023-09-19T12:47:22;1.30;;;1.30;;
74674;SDS011;63200;48.810;12.352;2023-09-19T12:50:05;1.45;;;1.00;;
74674;SDS011;63200;48.810;12.352;2023-09-19T12:52:35;1.15;;;1.00;;
74674;SDS011;63200;48.810;12.352;2023-09-19T12:55:03;1.42;;;1.10;;
74674;SDS011;63200;48.810;12.352;2023-09-19T12:57:30;1.45;;;0.93;;
74674;SDS011;63200;48.810;12.352;2023-09-19T13:00:00;1.00;;;1.00;;
74674;SDS011;63200;48.810;12.352;2023-09-19T13:02:31;1.10;;;1.10;;
74674;SDS011;63200;48.810;12.352;2023-09-19T13:04:58;0.90;;;0.90;;
74674;SDS011;63200;48.810;12.352;2023-09-19T13:07:40;2.15;;;1.00;;
74674;SDS011;63200;48.810;12.352;2023-09-19T13:10:10;1.15;;;1.15;;
74674;SDS011;63200;48.810;12.352;2023-09-19T13:12:39;1.63;;;0.90;;
74674;SDS011;63200;48.810;12.352;2023-09-19T13:15:09;1.33;;;1.25;;
74674;SDS011;63200;48.810;12.352;2023-09-19T13:17:43;1.10;;;0.80;;
74674;SDS011;63200;48.810;12.352;2023-09-19T13:20:20;1.13;;;1.13;;
74674;SDS011;63200;48.810;12.352;2023-09-19T13:22:52;1.83;;;0.98;;
74674;SDS011;63200;48.810;12.352;2023-09-19T13:25:20;2.53;;;1.05;;
74674;SDS011;63200;48.810;12.352;2023-09-19T13:27:47;1.38;;;1.00;;
74674;SDS011;63200;48.810;12.352;2023-09-19T13:30:19;1.10;;;1.10;;
74674;SDS011;63200;48.810;12.352;2023-09-19T13:32:45;1.23;;;1.00;;
74674;SDS011;63200;48.810;12.352;2023-09-19T13:35:12;1.42;;;1.02;;
74674;SDS011;63200;48.810;12.352;2023-09-19T13:37:38;1.23;;;0.90;;
74674;SDS011;63200;48.810;12.352;2023-09-19T13:40:11;1.25;;;1.15;;
74674;SDS011;63200;48.810;12.352;2023-09-19T13:42:38;1.73;;;1.20;;
74674;SDS011;63200;48.810;12.352;2023-09-19T13:45:05;1.00;;;1.00;;
74674;SDS011;63200;48.810;12.352;2023-09-19T13:47:31;1.00;;;1.00;;
74674;SDS011;63200;48.810;12.352;2023-09-19T13:49:57;0.88;;;0.88;;
74674;SDS011;63200;48.810;12.352;2023-09-19T13:52:23;2.63;;;1.15;;
74674;SDS011;63200;48.810;12.352;2023-09-19T13:54:52;2.05;;;1.10;;
74674;SDS011;63200;48.810;12.352;2023-09-19T13:57:23;1.48;;;0.82;;
74674;SDS011;63200;48.810;12.352;2023-09-19T13:59:49;1.05;;;1.05;;
74674;SDS011;63200;48.810;12.352;2023-09-19T14:02:15;1.40;;;1.30;;
74674;SDS011;63200;48.810;12.352;2023-09-19T14:04:43;1.95;;;1.08;;
74674;SDS011;63200;48.810;12.352;2023-09-19T14:07:08;1.30;;;1.20;;
74674;SDS011;63200;48.810;12.352;2023-09-19T14:09:34;1.25;;;1.02;;
74674;SDS011;63200;48.810;12.352;2023-09-19T14:11:59;1.10;;;1.08;;
74674;SDS011;63200;48.810;12.352;2023-09-19T14:14:24;0.90;;;0.90;;
74674;SDS011;63200;48.810;12.352;2023-09-19T14:16:50;1.17;;;1.15;;
74674;SDS011;63200;48.810;12.352;2023-09-19T14:19:17;0.98;;;0.98;;
74674;SDS011;63200;48.810;12.352;2023-09-19T14:21:42;1.30;;;1.20;;
74674;SDS011;63200;48.810;12.352;2023-09-19T14:24:08;1.02;;;1.02;;
74674;SDS011;63200;48.810;12.352;2023-09-19T14:26:37;1.20;;;1.02;;
74674;SDS011;63200;48.810;12.352;2023-09-19T14:29:04;1.02;;;1.02;;
74674;SDS011;63200;48.810;12.352;2023-09-19T14:31:32;1.23;;;1.13;;
74674;SDS011;63200;48.810;12.352;2023-09-19T14:33:58;1.77;;;1.20;;
74674;SDS011;63200;48.810;12.352;2023-09-19T14:36:24;1.02;;;1.00;;
74674;SDS011;63200;48.810;12.352;2023-09-19T14:38:52;1.52;;;1.20;;
74674;SDS011;63200;48.810;12.352;2023-09-19T14:41:22;1.05;;;1.00;;
74674;SDS011;63200;48.810;12.352;2023-09-19T14:43:48;1.33;;;1.23;;
74674;SDS011;63200;48.810;12.352;2023-09-19T14:46:14;1.00;;;1.00;;
74674;SDS011;63200;48.810;12.352;2023-09-19T14:48:39;1.60;;;1.00;;
74674;SDS011;63200;48.810;12.352;2023-09-19T14:51:08;1.67;;;1.10;;
74674;SDS011;63200;48.810;12.352;2023-09-19T14:53:34;2.08;;;1.30;;
74674;SDS011;63200;48.810;12.352;2023-09-19T14:56:00;0.95;;;0.93;;
74674;SDS011;63200;48.810;12.352;2023-09-19T14:58:28;1.65;;;1.25;;
74674;SDS011;63200;48.810;12.352;2023-09-19T15:01:02;1.00;;;1.00;;
74674;SDS011;63200;48.810;12.352;2023-09-19T15:03:41;1.45;;;1.20;;
74674;SDS011;63200;48.810;12.352;2023-09-19T15:06:08;1.20;;;1.15;;
74674;SDS011;63200;48.810;12.352;2023-09-19T15:08:36;1.05;;;1.05;;
74674;SDS011;63200;48.810;12.352;2023-09-19T15:11:05;1.30;;;1.20;;
74674;SDS011;63200;48.810;12.352;2023-09-19T15:13:32;2.97;;;1.10;;
74674;SDS011;63200;48.810;12.352;2023-09-19T15:16:01;2.15;;;1.23;;
74674;SDS011;63200;48.810;12.352;2023-09-19T15:18:27;1.30;;;1.20;;
74674;SDS011;63200;48.810;12.352;2023-09-19T15:20:55;1.00;;;1.00;;
74674;SDS011;63200;48.810;12.352;2023-09-19T15:23:20;1.20;;;1.20;;
74674;SDS011;63200;48.810;12.352;2023-09-19T15:25:48;1.60;;;1.17;;
74674;SDS011;63200;48.810;12.352;2023-09-19T15:28:14;1.23;;;1.23;;
74674;SDS011;63200;48.810;12.352;2023-09-19T15:30:39;1.42;;;1.33;;
74674;SDS011;63200;48.810;12.352;2023-09-19T15:33:05;3.50;;;1.23;;
74674;SDS011;63200;48.810;12.352;2023-09-19T15:35:30;1.52;;;1.50;;